createdAt,value
2022-08-12T03:18:30.008Z,78.38
2022-08-12T03:21:57.856Z,78.91
2022-08-12T03:25:27.148Z,78.87
2022-08-12T03:28:50.643Z,79.10
2022-08-12T03:32:00.930Z,79.13
2022-08-12T03:35:40.605Z,79.50
2022-08-12T03:39:14.934Z,79.33
2022-08-12T03:42:36.428Z,79.29
2022-08-12T03:45:57.659Z,79.32
2022-08-12T03:49:19.601Z,79.90
2022-08-12T03:52:41.978Z,80.42
2022-08-12T03:56:02.932Z,80.07
2022-08-12T03:59:23.862Z,80.38
2022-08-12T04:02:35.049Z,80.90
2022-08-12T04:05:58.808Z,81.44
2022-08-12T04:09:14.562Z,81.36
2022-08-12T04:12:39.255Z,81.50
2022-08-12T04:15:51.841Z,81.90
2022-08-12T04:19:03.097Z,82.55
2022-08-12T04:22:13.328Z,82.64
2022-08-12T04:25:26.308Z,82.72
2022-08-12T04:28:38.715Z,82.90
2022-08-12T04:31:49.367Z,83.05
2022-08-12T04:35:01.264Z,83.03
2022-08-12T04:38:12.485Z,83.14
2022-08-12T04:41:25.242Z,83.12
2022-08-12T04:44:35.046Z,83.08
2022-08-12T04:47:56.569Z,83.08
2022-08-12T04:51:07.325Z,83.23
2022-08-12T04:54:21.400Z,83.40
2022-08-12T04:57:41.813Z,83.68
2022-08-12T06:21:46.685Z,78.80
2022-08-12T06:25:01.439Z,79.02
2022-08-12T06:28:19.461Z,78.74
2022-08-12T06:31:31.407Z,78.25
2022-08-12T06:35:23.002Z,77.74
2022-08-12T06:38:17.034Z,77.71
2022-08-12T06:41:39.092Z,75.65
2022-08-12T06:45:12.336Z,75.27
2022-08-12T06:48:23.596Z,73.46
2022-08-12T06:51:36.470Z,72.60
2022-08-12T06:54:46.230Z,71.56
2022-08-12T06:58:10.236Z,69.33
2022-08-12T07:01:22.928Z,69.46
2022-08-12T07:04:39.212Z,67.47
2022-08-12T07:07:49.367Z,65.77
2022-08-12T07:11:04.037Z,64.87
2022-08-12T07:14:18.151Z,62.62
2022-08-12T07:17:35.682Z,60.59
2022-08-12T07:20:52.982Z,57.33
2022-08-12T07:24:07.839Z,55.38
2022-08-12T07:27:17.631Z,54.32
2022-08-12T07:30:31.798Z,51.78
2022-08-12T07:33:45.522Z,50.95
2022-08-12T07:36:55.469Z,50.96
2022-08-12T07:40:06.033Z,49.96
2022-08-12T07:43:16.005Z,49.76
2022-08-12T07:46:31.141Z,49.12
2022-08-12T07:50:05.838Z,48.22
2022-08-12T07:53:10.724Z,47.14
2022-08-12T07:56:20.834Z,46.00
2022-08-12T07:59:35.737Z,45.79
2022-08-12T08:02:53.347Z,45.58
2022-08-12T08:06:18.693Z,45.09
2022-08-12T08:09:32.035Z,44.75
2022-08-12T08:12:52.777Z,43.62
2022-08-12T08:16:05.717Z,43.59
2022-08-12T08:19:22.792Z,43.49
2022-08-12T08:22:41.590Z,42.51
2022-08-12T08:25:52.559Z,42.54
2022-08-12T08:29:02.767Z,41.54
2022-08-12T08:32:14.317Z,41.03
2022-08-12T08:35:47.104Z,40.45
2022-08-12T08:39:00.113Z,39.27
2022-08-12T08:42:20.980Z,39.38
2022-08-12T08:45:38.544Z,38.06
2022-08-12T08:48:48.822Z,37.09
2022-08-12T08:51:59.940Z,36.83
2022-08-12T08:55:11.160Z,35.35
2022-08-12T08:58:21.692Z,35.79
2022-08-12T09:01:37.549Z,35.83
2022-08-12T09:05:13.106Z,35.14
2022-08-12T09:08:26.689Z,35.05
2022-08-12T09:12:06.673Z,34.29
2022-08-12T09:15:21.612Z,34.54
2022-08-12T09:18:33.603Z,33.86
2022-08-12T09:21:54.760Z,34.43
2022-08-12T09:25:07.127Z,33.19
2022-08-12T09:28:31.650Z,33.09
2022-08-12T09:32:03.402Z,33.43
2022-08-12T09:35:22.463Z,33.10
2022-08-12T09:38:39.454Z,32.40
2022-08-12T09:42:39.556Z,32.58
2022-08-12T09:46:11.274Z,31.34
2022-08-12T09:49:41.464Z,32.50
2022-08-12T09:53:06.389Z,32.24
2022-08-12T09:56:58.244Z,30.94
2022-08-12T10:00:17.453Z,30.82
2022-08-12T10:03:33.183Z,30.79
2022-08-12T10:06:54.280Z,30.60
2022-08-12T10:10:06.524Z,31.24
2022-08-12T10:13:42.078Z,30.77
2022-08-12T10:16:57.797Z,31.52
2022-08-12T10:20:10.034Z,32.01
2022-08-12T10:23:39.781Z,31.50
2022-08-12T10:27:05.792Z,31.40
2022-08-12T10:30:42.052Z,31.46
2022-08-12T10:34:06.258Z,31.04
2022-08-12T10:37:50.397Z,31.09
2022-08-12T10:41:03.978Z,30.61
2022-08-12T10:44:17.134Z,30.86
2022-08-12T10:48:15.888Z,31.02
2022-08-12T10:52:03.939Z,31.17
2022-08-12T10:54:39.646Z,30.33
2022-08-12T10:58:15.244Z,30.42
2022-08-12T11:03:01.490Z,30.76
2022-08-12T11:07:03.423Z,30.90
2022-08-12T11:08:43.640Z,30.82
2022-08-12T11:12:36.982Z,30.18
2022-08-12T11:16:03.238Z,30.19
2022-08-12T11:18:58.421Z,30.16
2022-08-12T11:22:13.077Z,29.49
2022-08-12T11:28:59.033Z,28.66
2022-08-12T11:32:11.731Z,28.39
2022-08-12T11:35:24.496Z,28.01
2022-08-12T11:38:36.661Z,28.00
2022-08-12T11:41:52.565Z,28.22
2022-08-12T11:45:10.433Z,27.66
2022-08-12T11:48:26.995Z,27.31
2022-08-12T11:51:39.656Z,28.23
2022-08-12T11:54:51.135Z,28.83
2022-08-12T11:58:42.266Z,28.53
2022-08-12T12:01:58.475Z,28.54
2022-08-12T12:05:02.554Z,27.89
2022-08-12T12:08:38.309Z,27.91
2022-08-12T12:11:51.792Z,28.56
2022-08-12T12:15:07.037Z,27.94
2022-08-12T12:18:30.658Z,28.42
2022-08-12T12:21:48.376Z,28.08
2022-08-12T12:25:13.328Z,27.64
2022-08-12T12:28:38.137Z,27.06
2022-08-12T12:32:09.842Z,28.38
2022-08-12T12:36:17.122Z,27.20
2022-08-12T12:38:56.155Z,27.85
2022-08-12T12:42:43.158Z,27.08
2022-08-12T12:45:44.308Z,27.76
2022-08-12T12:48:57.368Z,26.93
2022-08-12T12:52:19.835Z,26.63
2022-08-12T12:55:35.908Z,26.33
2022-08-12T12:58:46.908Z,26.31
2022-08-12T13:02:08.790Z,26.59
2022-08-12T13:05:21.495Z,26.25
2022-08-12T13:08:41.051Z,26.48
2022-08-12T13:11:53.248Z,25.62
2022-08-12T13:15:04.885Z,26.00
2022-08-12T13:18:17.069Z,25.66
2022-08-12T13:21:36.639Z,25.50
2022-08-12T13:24:56.249Z,25.67
2022-08-12T13:28:06.812Z,25.23
2022-08-12T13:31:16.946Z,24.58
2022-08-12T13:34:33.478Z,25.36
2022-08-12T13:37:55.203Z,24.83
2022-08-12T13:41:11.045Z,25.43
2022-08-12T13:44:26.217Z,25.19
2022-08-12T13:47:55.509Z,24.89
2022-08-12T13:51:05.472Z,26.18
2022-08-12T13:54:20.168Z,25.99
2022-08-12T13:57:44.699Z,25.85
2022-08-12T14:01:00.165Z,25.43
2022-08-12T14:04:13.108Z,25.02
2022-08-12T14:07:23.560Z,25.32
2022-08-12T14:10:51.170Z,25.25
2022-08-12T14:14:06.382Z,24.76
2022-08-12T14:17:23.180Z,25.04
2022-08-12T14:20:35.458Z,25.62
2022-08-12T14:24:05.414Z,25.38
2022-08-12T14:28:02.737Z,25.66
2022-08-12T14:30:59.608Z,25.42
2022-08-12T14:34:10.544Z,26.04
2022-08-12T14:37:57.475Z,26.01
2022-08-12T14:41:00.223Z,24.90
2022-08-12T14:44:59.817Z,25.49
2022-08-12T14:47:53.605Z,24.88
2022-08-12T14:53:26.743Z,24.85
2022-08-12T14:58:10.792Z,24.28
2022-08-12T15:01:34.480Z,24.84
2022-08-12T15:04:45.315Z,25.15
2022-08-12T15:08:04.865Z,24.77
2022-08-12T15:11:17.188Z,25.27
2022-08-12T15:14:31.753Z,24.36
2022-08-12T15:17:43.223Z,24.15
2022-08-12T15:21:03.503Z,25.00
2022-08-12T15:24:14.245Z,24.97
2022-08-12T15:27:31.622Z,24.08
2022-08-12T15:30:59.073Z,24.84
2022-08-12T15:34:10.995Z,24.92
2022-08-12T15:37:20.842Z,24.60
2022-08-12T15:40:53.828Z,24.45
2022-08-12T15:44:20.096Z,24.00
2022-08-12T15:47:47.890Z,25.56
2022-08-12T15:51:06.429Z,25.06
2022-08-12T15:54:30.872Z,24.19
2022-08-12T15:57:55.077Z,24.83
2022-08-12T16:01:06.765Z,24.32
2022-08-12T16:04:21.090Z,24.63
2022-08-12T16:07:36.914Z,25.22
2022-08-12T16:10:49.709Z,25.56
2022-08-12T16:14:00.175Z,25.39
2022-08-12T16:17:15.623Z,24.90
2022-08-12T16:20:34.273Z,25.52
2022-08-12T16:23:57.794Z,24.89
2022-08-12T16:27:07.921Z,24.91
2022-08-12T16:30:31.338Z,24.49
2022-08-12T16:33:59.328Z,25.50
2022-08-12T16:37:13.224Z,25.88
2022-08-12T16:40:25.974Z,24.76
2022-08-12T16:43:41.086Z,24.88
2022-08-12T16:46:57.876Z,25.39
2022-08-12T16:50:12.086Z,25.51
2022-08-12T16:53:30.821Z,26.48
2022-08-12T16:56:57.648Z,25.71
2022-08-12T17:00:11.395Z,26.70
2022-08-12T17:03:28.582Z,25.50
2022-08-12T17:06:43.308Z,25.93
2022-08-12T17:09:53.428Z,25.80
2022-08-12T17:13:10.111Z,25.94
2022-08-12T17:16:20.392Z,26.33
2022-08-12T17:20:02.562Z,25.89
2022-08-12T17:23:03.713Z,26.33
2022-08-12T17:26:30.859Z,27.13
2022-08-12T17:30:03.227Z,26.94
2022-08-12T17:33:24.841Z,27.84
2022-08-12T17:36:35.853Z,28.19
2022-08-12T17:40:13.528Z,27.84
2022-08-12T17:43:57.703Z,27.83
2022-08-12T17:46:53.906Z,28.96
2022-08-12T17:50:06.040Z,29.57
2022-08-12T17:53:18.145Z,30.06
2022-08-12T17:56:32.070Z,30.46
2022-08-12T17:59:48.830Z,31.43
2022-08-12T18:03:04.617Z,31.47
2022-08-12T18:06:15.617Z,31.29
2022-08-12T18:09:36.093Z,31.87
2022-08-12T18:12:52.373Z,32.88
2022-08-12T18:16:06.746Z,33.57
2022-08-12T18:19:19.349Z,33.66
2022-08-12T18:22:33.012Z,34.07
2022-08-12T18:26:15.390Z,34.64
2022-08-12T18:29:41.937Z,35.39
2022-08-12T18:32:59.022Z,35.77
2022-08-12T18:36:13.090Z,37.23
2022-08-12T18:39:23.418Z,38.05
2022-08-12T18:42:32.597Z,38.40
2022-08-12T18:45:46.952Z,38.83
2022-08-12T18:49:18.762Z,40.21
2022-08-12T18:52:34.951Z,40.19
2022-08-12T18:55:53.774Z,40.82
2022-08-12T18:59:10.425Z,41.31
2022-08-12T19:02:22.522Z,41.67
2022-08-12T19:05:54.267Z,41.80
2022-08-12T19:09:09.979Z,42.52
2022-08-12T19:12:32.489Z,43.70
2022-08-12T19:15:45.332Z,43.10
2022-08-12T19:18:58.809Z,42.78
2022-08-12T19:22:08.873Z,43.80
2022-08-12T19:26:00.714Z,44.74
2022-08-12T19:29:01.244Z,45.50
2022-08-12T19:32:13.966Z,45.29
2022-08-12T19:36:23.892Z,46.39
2022-08-12T19:38:57.873Z,47.01
2022-08-12T19:42:09.250Z,46.91
2022-08-12T19:45:20.680Z,47.64
2022-08-12T19:48:34.682Z,47.57
2022-08-12T19:51:49.547Z,48.37
2022-08-12T19:55:00.110Z,48.77
2022-08-12T19:58:18.174Z,48.21
2022-08-12T20:01:33.835Z,48.88
2022-08-12T20:06:04.779Z,49.68
2022-08-12T20:08:34.504Z,49.42
2022-08-12T20:12:14.635Z,49.43
2022-08-12T20:15:26.131Z,50.59
2022-08-12T20:18:44.511Z,51.20
2022-08-12T20:22:14.291Z,51.26
2022-08-12T20:25:28.151Z,51.80
2022-08-12T20:28:54.768Z,51.61
2022-08-12T20:32:09.433Z,52.12
2022-08-12T20:36:07.022Z,52.92
2022-08-12T20:38:56.030Z,53.27
2022-08-12T20:42:08.487Z,53.49
2022-08-12T20:45:18.301Z,54.05
2022-08-12T20:48:29.687Z,54.03
2022-08-12T20:51:55.197Z,54.16
2022-08-12T20:55:15.606Z,54.07
2022-08-12T20:58:35.771Z,54.75
2022-08-12T21:01:48.937Z,54.84
2022-08-12T21:05:19.496Z,54.80
2022-08-12T21:08:32.924Z,55.86
2022-08-12T21:11:43.558Z,56.36
2022-08-12T21:15:16.998Z,56.51
2022-08-12T21:18:35.587Z,57.12
2022-08-12T21:21:49.973Z,56.97
2022-08-12T21:25:02.139Z,58.10
2022-08-12T21:28:30.757Z,57.73
2022-08-12T21:32:38.016Z,58.24
2022-08-12T21:35:17.447Z,57.92
2022-08-12T21:38:37.241Z,58.60
2022-08-12T21:41:50.983Z,58.28
2022-08-12T21:45:45.887Z,59.16
2022-08-12T21:48:31.518Z,59.67
2022-08-12T21:51:49.751Z,60.37
2022-08-12T21:55:01.515Z,59.78
